sensor_id;sensor_type;location;lat;lon;timestamp;P1;durP1;ratioP1;P2;durP2;ratioP2
5010;SDS011;2524;54.364;10.072;2023-07-20T00:01:40;1.33;;;1.33;;
5010;SDS011;2524;54.364;10.072;2023-07-20T00:04:09;1.60;;;1.60;;
5010;SDS011;2524;54.364;10.072;2023-07-20T00:06:35;1.33;;;1.33;;
5010;SDS011;2524;54.364;10.072;2023-07-20T00:09:02;1.20;;;1.20;;
5010;SDS011;2524;54.364;10.072;2023-07-20T00:11:28;1.20;;;1.20;;
5010;SDS011;2524;54.364;10.072;2023-07-20T00:13:53;1.30;;;1.30;;
5010;SDS011;2524;54.364;10.072;2023-07-20T00:16:19;1.43;;;1.43;;
5010;SDS011;2524;54.364;10.072;2023-07-20T00:18:45;1.07;;;1.07;;
5010;SDS011;2524;54.364;10.072;2023-07-20T00:21:11;1.30;;;1.30;;
5010;SDS011;2524;54.364;10.072;2023-07-20T00:23:37;1.47;;;1.37;;
5010;SDS011;2524;54.364;10.072;2023-07-20T00:26:03;1.00;;;1.00;;
5010;SDS011;2524;54.364;10.072;2023-07-20T00:28:28;1.23;;;1.23;;
5010;SDS011;2524;54.364;10.072;2023-07-20T00:30:54;1.33;;;1.33;;
5010;SDS011;2524;54.364;10.072;2023-07-20T00:33:19;1.30;;;1.30;;
5010;SDS011;2524;54.364;10.072;2023-07-20T00:35:45;1.60;;;1.50;;
5010;SDS011;2524;54.364;10.072;2023-07-20T00:38:10;1.30;;;1.30;;
5010;SDS011;2524;54.364;10.072;2023-07-20T00:40:39;1.30;;;1.30;;
5010;SDS011;2524;54.364;10.072;2023-07-20T00:43:06;1.00;;;1.00;;
5010;SDS011;2524;54.364;10.072;2023-07-20T00:45:32;1.30;;;1.30;;
5010;SDS011;2524;54.364;10.072;2023-07-20T00:47:59;1.00;;;1.00;;
5010;SDS011;2524;54.364;10.072;2023-07-20T00:50:26;1.40;;;1.30;;
5010;SDS011;2524;54.364;10.072;2023-07-20T00:52:54;1.10;;;1.10;;
5010;SDS011;2524;54.364;10.072;2023-07-20T00:55:20;1.40;;;1.40;;
5010;SDS011;2524;54.364;10.072;2023-07-20T00:57:47;1.30;;;1.30;;
5010;SDS011;2524;54.364;10.072;2023-07-20T01:00:13;1.37;;;1.27;;
5010;SDS011;2524;54.364;10.072;2023-07-20T01:02:39;1.20;;;1.20;;
5010;SDS011;2524;54.364;10.072;2023-07-20T01:05:04;1.00;;;1.00;;
5010;SDS011;2524;54.364;10.072;2023-07-20T01:07:53;1.50;;;1.40;;
5010;SDS011;2524;54.364;10.072;2023-07-20T01:12:50;1.53;;;1.53;;
5010;SDS011;2524;54.364;10.072;2023-07-20T01:15:17;1.50;;;1.50;;
5010;SDS011;2524;54.364;10.072;2023-07-20T01:17:42;1.40;;;1.40;;
5010;SDS011;2524;54.364;10.072;2023-07-20T01:20:10;1.60;;;1.50;;
5010;SDS011;2524;54.364;10.072;2023-07-20T01:31:24;1.90;;;1.80;;
5010;SDS011;2524;54.364;10.072;2023-07-20T01:33:52;1.53;;;1.53;;
5010;SDS011;2524;54.364;10.072;2023-07-20T01:36:20;1.53;;;1.53;;
5010;SDS011;2524;54.364;10.072;2023-07-20T01:38:48;1.40;;;1.40;;
5010;SDS011;2524;54.364;10.072;2023-07-20T01:41:14;1.80;;;1.80;;
5010;SDS011;2524;54.364;10.072;2023-07-20T01:43:40;1.50;;;1.50;;
5010;SDS011;2524;54.364;10.072;2023-07-20T01:46:07;1.40;;;1.40;;
5010;SDS011;2524;54.364;10.072;2023-07-20T01:48:32;1.70;;;1.60;;
5010;SDS011;2524;54.364;10.072;2023-07-20T01:50:58;1.97;;;1.87;;
5010;SDS011;2524;54.364;10.072;2023-07-20T01:53:23;1.53;;;1.53;;
5010;SDS011;2524;54.364;10.072;2023-07-20T01:55:49;1.80;;;1.70;;
5010;SDS011;2524;54.364;10.072;2023-07-20T01:58:17;1.73;;;1.63;;
5010;SDS011;2524;54.364;10.072;2023-07-20T02:00:42;1.70;;;1.70;;
5010;SDS011;2524;54.364;10.072;2023-07-20T02:03:08;1.60;;;1.60;;
5010;SDS011;2524;54.364;10.072;2023-07-20T02:05:33;1.70;;;1.70;;
5010;SDS011;2524;54.364;10.072;2023-07-20T02:07:59;1.50;;;1.50;;
5010;SDS011;2524;54.364;10.072;2023-07-20T02:10:24;1.40;;;1.40;;
5010;SDS011;2524;54.364;10.072;2023-07-20T02:12:50;1.80;;;1.80;;
5010;SDS011;2524;54.364;10.072;2023-07-20T02:15:15;1.67;;;1.67;;
5010;SDS011;2524;54.364;10.072;2023-07-20T02:17:43;1.33;;;1.33;;
5010;SDS011;2524;54.364;10.072;2023-07-20T02:20:09;1.60;;;1.60;;
5010;SDS011;2524;54.364;10.072;2023-07-20T02:22:36;1.47;;;1.47;;
5010;SDS011;2524;54.364;10.072;2023-07-20T02:25:03;1.80;;;1.70;;
5010;SDS011;2524;54.364;10.072;2023-07-20T02:27:29;1.40;;;1.40;;
5010;SDS011;2524;54.364;10.072;2023-07-20T02:29:55;1.63;;;1.63;;
5010;SDS011;2524;54.364;10.072;2023-07-20T02:32:21;1.60;;;1.60;;
5010;SDS011;2524;54.364;10.072;2023-07-20T02:34:47;1.70;;;1.70;;
5010;SDS011;2524;54.364;10.072;2023-07-20T02:37:12;1.60;;;1.60;;
5010;SDS011;2524;54.364;10.072;2023-07-20T02:39:38;1.40;;;1.40;;
5010;SDS011;2524;54.364;10.072;2023-07-20T02:42:04;1.90;;;1.80;;
5010;SDS011;2524;54.364;10.072;2023-07-20T02:44:30;1.43;;;1.43;;
5010;SDS011;2524;54.364;10.072;2023-07-20T02:46:56;1.50;;;1.40;;
5010;SDS011;2524;54.364;10.072;2023-07-20T02:49:21;1.30;;;1.30;;
5010;SDS011;2524;54.364;10.072;2023-07-20T02:51:47;1.20;;;1.20;;
5010;SDS011;2524;54.364;10.072;2023-07-20T02:54:12;1.20;;;1.20;;
5010;SDS011;2524;54.364;10.072;2023-07-20T02:56:38;1.50;;;1.40;;
5010;SDS011;2524;54.364;10.072;2023-07-20T02:59:03;1.40;;;1.40;;
5010;SDS011;2524;54.364;10.072;2023-07-20T03:01:29;1.30;;;1.30;;
5010;SDS011;2524;54.364;10.072;2023-07-20T03:03:55;1.27;;;1.27;;
5010;SDS011;2524;54.364;10.072;2023-07-20T03:06:21;1.23;;;1.23;;
5010;SDS011;2524;54.364;10.072;2023-07-20T03:08:47;1.37;;;1.37;;
5010;SDS011;2524;54.364;10.072;2023-07-20T03:11:16;1.40;;;1.30;;
5010;SDS011;2524;54.364;10.072;2023-07-20T03:13:42;1.37;;;1.37;;
5010;SDS011;2524;54.364;10.072;2023-07-20T03:16:09;1.50;;;1.50;;
5010;SDS011;2524;54.364;10.072;2023-07-20T03:18:38;1.73;;;1.50;;
5010;SDS011;2524;54.364;10.072;2023-07-20T03:21:07;3.13;;;1.40;;
5010;SDS011;2524;54.364;10.072;2023-07-20T03:23:36;1.40;;;1.40;;
5010;SDS011;2524;54.364;10.072;2023-07-20T03:26:02;1.20;;;1.20;;
5010;SDS011;2524;54.364;10.072;2023-07-20T03:28:27;1.30;;;1.30;;
5010;SDS011;2524;54.364;10.072;2023-07-20T03:30:55;2.93;;;1.90;;
5010;SDS011;2524;54.364;10.072;2023-07-20T03:33:22;1.53;;;1.43;;
5010;SDS011;2524;54.364;10.072;2023-07-20T03:35:52;2.60;;;1.70;;
5010;SDS011;2524;54.364;10.072;2023-07-20T03:38:18;3.47;;;1.40;;
5010;SDS011;2524;54.364;10.072;2023-07-20T03:40:54;1.50;;;1.50;;
5010;SDS011;2524;54.364;10.072;2023-07-20T03:43:22;1.40;;;1.40;;
5010;SDS011;2524;54.364;10.072;2023-07-20T03:45:48;1.17;;;1.10;;
5010;SDS011;2524;54.364;10.072;2023-07-20T03:48:15;1.50;;;1.50;;
5010;SDS011;2524;54.364;10.072;2023-07-20T03:50:41;1.50;;;1.40;;
5010;SDS011;2524;54.364;10.072;2023-07-20T03:53:08;1.53;;;1.53;;
5010;SDS011;2524;54.364;10.072;2023-07-20T03:55:34;1.47;;;1.47;;
5010;SDS011;2524;54.364;10.072;2023-07-20T03:58:00;1.20;;;1.20;;
5010;SDS011;2524;54.364;10.072;2023-07-20T04:00:26;1.20;;;1.20;;
5010;SDS011;2524;54.364;10.072;2023-07-20T04:02:52;1.33;;;1.33;;
5010;SDS011;2524;54.364;10.072;2023-07-20T04:05:17;1.23;;;1.23;;
5010;SDS011;2524;54.364;10.072;2023-07-20T04:07:43;1.80;;;1.70;;
5010;SDS011;2524;54.364;10.072;2023-07-20T04:10:09;1.50;;;1.40;;
5010;SDS011;2524;54.364;10.072;2023-07-20T04:12:35;1.47;;;1.40;;
5010;SDS011;2524;54.364;10.072;2023-07-20T04:15:00;1.30;;;1.30;;
5010;SDS011;2524;54.364;10.072;2023-07-20T04:17:28;1.13;;;1.13;;
5010;SDS011;2524;54.364;10.072;2023-07-20T04:19:54;1.10;;;1.10;;
5010;SDS011;2524;54.364;10.072;2023-07-20T04:22:19;1.10;;;1.10;;
5010;SDS011;2524;54.364;10.072;2023-07-20T04:24:45;1.10;;;1.10;;
5010;SDS011;2524;54.364;10.072;2023-07-20T04:27:10;1.80;;;1.20;;
5010;SDS011;2524;54.364;10.072;2023-07-20T04:29:36;1.00;;;1.00;;
5010;SDS011;2524;54.364;10.072;2023-07-20T04:32:01;1.40;;;1.13;;
5010;SDS011;2524;54.364;10.072;2023-07-20T04:34:27;1.93;;;1.20;;
5010;SDS011;2524;54.364;10.072;2023-07-20T04:36:52;2.47;;;1.13;;
5010;SDS011;2524;54.364;10.072;2023-07-20T04:39:18;2.40;;;0.97;;
5010;SDS011;2524;54.364;10.072;2023-07-20T04:41:43;1.20;;;1.10;;
5010;SDS011;2524;54.364;10.072;2023-07-20T04:44:09;1.00;;;1.00;;
5010;SDS011;2524;54.364;10.072;2023-07-20T04:46:35;0.97;;;0.97;;
5010;SDS011;2524;54.364;10.072;2023-07-20T04:49:00;1.13;;;1.13;;
5010;SDS011;2524;54.364;10.072;2023-07-20T04:51:26;1.00;;;0.90;;
5010;SDS011;2524;54.364;10.072;2023-07-20T04:53:52;1.00;;;1.00;;
5010;SDS011;2524;54.364;10.072;2023-07-20T04:56:18;1.23;;;1.10;;
5010;SDS011;2524;54.364;10.072;2023-07-20T04:58:43;2.70;;;1.10;;
5010;SDS011;2524;54.364;10.072;2023-07-20T05:01:09;0.80;;;0.80;;
5010;SDS011;2524;54.364;10.072;2023-07-20T05:03:34;1.23;;;1.13;;
5010;SDS011;2524;54.364;10.072;2023-07-20T05:06:00;1.73;;;1.07;;
5010;SDS011;2524;54.364;10.072;2023-07-20T05:08:25;1.20;;;1.10;;
5010;SDS011;2524;54.364;10.072;2023-07-20T05:10:51;1.17;;;1.10;;
5010;SDS011;2524;54.364;10.072;2023-07-20T05:13:17;1.00;;;1.00;;
5010;SDS011;2524;54.364;10.072;2023-07-20T05:15:42;1.03;;;1.03;;
5010;SDS011;2524;54.364;10.072;2023-07-20T05:18:08;1.10;;;1.00;;
5010;SDS011;2524;54.364;10.072;2023-07-20T05:20:34;1.80;;;1.10;;
5010;SDS011;2524;54.364;10.072;2023-07-20T05:23:00;1.50;;;1.43;;
5010;SDS011;2524;54.364;10.072;2023-07-20T05:25:26;1.70;;;1.70;;
5010;SDS011;2524;54.364;10.072;2023-07-20T05:27:51;2.10;;;2.00;;
5010;SDS011;2524;54.364;10.072;2023-07-20T05:30:17;1.70;;;1.60;;
5010;SDS011;2524;54.364;10.072;2023-07-20T05:32:43;1.50;;;1.50;;
5010;SDS011;2524;54.364;10.072;2023-07-20T05:35:12;1.20;;;1.20;;
5010;SDS011;2524;54.364;10.072;2023-07-20T05:37:39;1.17;;;1.17;;
5010;SDS011;2524;54.364;10.072;2023-07-20T05:40:04;1.20;;;1.20;;
5010;SDS011;2524;54.364;10.072;2023-07-20T05:42:32;1.00;;;1.00;;
5010;SDS011;2524;54.364;10.072;2023-07-20T05:44:58;1.37;;;1.27;;
5010;SDS011;2524;54.364;10.072;2023-07-20T05:47:23;1.40;;;1.30;;
5010;SDS011;2524;54.364;10.072;2023-07-20T05:49:49;1.10;;;1.10;;
5010;SDS011;2524;54.364;10.072;2023-07-20T05:52:14;1.77;;;1.67;;
5010;SDS011;2524;54.364;10.072;2023-07-20T05:54:40;2.30;;;1.53;;
5010;SDS011;2524;54.364;10.072;2023-07-20T05:57:06;1.70;;;1.60;;
5010;SDS011;2524;54.364;10.072;2023-07-20T05:59:32;3.20;;;1.70;;
5010;SDS011;2524;54.364;10.072;2023-07-20T06:01:58;1.50;;;1.40;;
5010;SDS011;2524;54.364;10.072;2023-07-20T06:04:24;1.70;;;1.60;;
5010;SDS011;2524;54.364;10.072;2023-07-20T06:06:49;1.53;;;1.43;;
5010;SDS011;2524;54.364;10.072;2023-07-20T06:09:15;1.80;;;1.70;;
5010;SDS011;2524;54.364;10.072;2023-07-20T06:11:40;1.50;;;1.40;;
5010;SDS011;2524;54.364;10.072;2023-07-20T06:14:06;1.93;;;1.83;;
5010;SDS011;2524;54.364;10.072;2023-07-20T06:16:31;1.47;;;1.40;;
5010;SDS011;2524;54.364;10.072;2023-07-20T06:18:58;1.60;;;1.50;;
5010;SDS011;2524;54.364;10.072;2023-07-20T06:21:24;1.40;;;1.33;;
5010;SDS011;2524;54.364;10.072;2023-07-20T06:23:50;1.57;;;1.53;;
5010;SDS011;2524;54.364;10.072;2023-07-20T06:26:16;2.30;;;1.80;;
5010;SDS011;2524;54.364;10.072;2023-07-20T06:28:41;2.13;;;2.00;;
5010;SDS011;2524;54.364;10.072;2023-07-20T06:31:07;1.87;;;1.77;;
5010;SDS011;2524;54.364;10.072;2023-07-20T06:33:32;2.00;;;1.90;;
5010;SDS011;2524;54.364;10.072;2023-07-20T06:35:59;2.50;;;2.20;;
5010;SDS011;2524;54.364;10.072;2023-07-20T06:38:25;2.63;;;2.07;;
5010;SDS011;2524;54.364;10.072;2023-07-20T06:40:50;2.73;;;2.20;;
5010;SDS011;2524;54.364;10.072;2023-07-20T06:43:16;2.10;;;1.90;;
5010;SDS011;2524;54.364;10.072;2023-07-20T06:45:42;4.90;;;2.00;;
5010;SDS011;2524;54.364;10.072;2023-07-20T06:48:07;3.80;;;1.97;;
5010;SDS011;2524;54.364;10.072;2023-07-20T06:50:33;2.60;;;1.90;;
5010;SDS011;2524;54.364;10.072;2023-07-20T06:52:59;2.07;;;1.97;;
5010;SDS011;2524;54.364;10.072;2023-07-20T06:55:25;1.70;;;1.60;;
5010;SDS011;2524;54.364;10.072;2023-07-20T06:57:51;1.43;;;1.33;;
5010;SDS011;2524;54.364;10.072;2023-07-20T07:00:16;2.60;;;2.30;;
5010;SDS011;2524;54.364;10.072;2023-07-20T07:02:43;2.30;;;2.10;;
5010;SDS011;2524;54.364;10.072;2023-07-20T07:05:08;2.80;;;2.03;;
5010;SDS011;2524;54.364;10.072;2023-07-20T07:07:34;4.97;;;2.00;;
5010;SDS011;2524;54.364;10.072;2023-07-20T07:10:00;2.13;;;1.90;;
5010;SDS011;2524;54.364;10.072;2023-07-20T07:12:26;3.43;;;1.90;;
5010;SDS011;2524;54.364;10.072;2023-07-20T07:14:51;3.00;;;1.97;;
5010;SDS011;2524;54.364;10.072;2023-07-20T07:17:18;1.67;;;1.57;;
5010;SDS011;2524;54.364;10.072;2023-07-20T07:19:44;4.60;;;2.60;;
5010;SDS011;2524;54.364;10.072;2023-07-20T07:22:09;3.07;;;1.67;;
5010;SDS011;2524;54.364;10.072;2023-07-20T07:24:35;2.33;;;1.60;;
5010;SDS011;2524;54.364;10.072;2023-07-20T07:27:01;3.00;;;2.00;;
5010;SDS011;2524;54.364;10.072;2023-07-20T07:29:27;3.17;;;1.90;;
5010;SDS011;2524;54.364;10.072;2023-07-20T07:31:52;2.10;;;1.70;;
5010;SDS011;2524;54.364;10.072;2023-07-20T07:34:18;3.10;;;1.80;;
5010;SDS011;2524;54.364;10.072;2023-07-20T07:36:44;6.33;;;1.80;;
5010;SDS011;2524;54.364;10.072;2023-07-20T07:39:10;2.53;;;1.73;;
5010;SDS011;2524;54.364;10.072;2023-07-20T07:41:36;2.30;;;1.60;;
5010;SDS011;2524;54.364;10.072;2023-07-20T07:44:02;4.30;;;1.80;;
5010;SDS011;2524;54.364;10.072;2023-07-20T07:46:28;1.60;;;1.47;;
5010;SDS011;2524;54.364;10.072;2023-07-20T07:48:53;1.53;;;1.30;;
5010;SDS011;2524;54.364;10.072;2023-07-20T07:51:19;3.07;;;2.07;;
5010;SDS011;2524;54.364;10.072;2023-07-20T07:53:47;1.97;;;1.70;;
5010;SDS011;2524;54.364;10.072;2023-07-20T07:56:14;2.30;;;1.87;;
5010;SDS011;2524;54.364;10.072;2023-07-20T07:58:39;3.43;;;1.70;;
5010;SDS011;2524;54.364;10.072;2023-07-20T08:01:05;4.33;;;2.17;;
5010;SDS011;2524;54.364;10.072;2023-07-20T08:03:31;2.03;;;1.83;;
5010;SDS011;2524;54.364;10.072;2023-07-20T08:05:56;2.30;;;1.70;;
5010;SDS011;2524;54.364;10.072;2023-07-20T08:08:23;3.90;;;1.90;;
5010;SDS011;2524;54.364;10.072;2023-07-20T08:10:49;2.47;;;1.50;;
5010;SDS011;2524;54.364;10.072;2023-07-20T08:13:17;3.37;;;1.83;;
5010;SDS011;2524;54.364;10.072;2023-07-20T08:15:49;3.77;;;1.97;;
5010;SDS011;2524;54.364;10.072;2023-07-20T08:18:19;1.93;;;1.23;;
5010;SDS011;2524;54.364;10.072;2023-07-20T08:20:45;1.53;;;1.20;;
5010;SDS011;2524;54.364;10.072;2023-07-20T08:23:10;6.03;;;2.00;;
5010;SDS011;2524;54.364;10.072;2023-07-20T08:25:36;2.53;;;1.37;;
5010;SDS011;2524;54.364;10.072;2023-07-20T08:28:04;2.77;;;1.30;;
5010;SDS011;2524;54.364;10.072;2023-07-20T08:30:39;1.13;;;0.90;;
5010;SDS011;2524;54.364;10.072;2023-07-20T08:33:14;1.07;;;1.00;;
5010;SDS011;2524;54.364;10.072;2023-07-20T08:35:41;1.60;;;1.13;;
5010;SDS011;2524;54.364;10.072;2023-07-20T08:38:07;2.83;;;1.50;;
5010;SDS011;2524;54.364;10.072;2023-07-20T08:40:34;1.30;;;1.20;;
5010;SDS011;2524;54.364;10.072;2023-07-20T08:43:05;2.40;;;1.60;;
5010;SDS011;2524;54.364;10.072;2023-07-20T08:45:32;3.03;;;1.50;;
5010;SDS011;2524;54.364;10.072;2023-07-20T08:47:59;1.53;;;1.43;;
5010;SDS011;2524;54.364;10.072;2023-07-20T08:50:27;7.17;;;1.73;;
5010;SDS011;2524;54.364;10.072;2023-07-20T08:52:56;3.63;;;1.63;;
5010;SDS011;2524;54.364;10.072;2023-07-20T08:55:23;1.60;;;1.47;;
5010;SDS011;2524;54.364;10.072;2023-07-20T08:57:58;1.80;;;1.30;;
5010;SDS011;2524;54.364;10.072;2023-07-20T09:00:25;2.00;;;1.30;;
5010;SDS011;2524;54.364;10.072;2023-07-20T09:02:53;1.23;;;1.07;;
5010;SDS011;2524;54.364;10.072;2023-07-20T09:05:19;1.00;;;0.80;;
5010;SDS011;2524;54.364;10.072;2023-07-20T09:07:45;2.50;;;1.07;;
5010;SDS011;2524;54.364;10.072;2023-07-20T09:10:11;2.10;;;0.87;;
5010;SDS011;2524;54.364;10.072;2023-07-20T09:12:38;1.83;;;1.00;;
5010;SDS011;2524;54.364;10.072;2023-07-20T09:15:05;2.80;;;1.13;;
5010;SDS011;2524;54.364;10.072;2023-07-20T09:17:31;2.50;;;1.17;;
5010;SDS011;2524;54.364;10.072;2023-07-20T09:19:57;1.77;;;0.90;;
5010;SDS011;2524;54.364;10.072;2023-07-20T09:22:29;1.13;;;1.03;;
5010;SDS011;2524;54.364;10.072;2023-07-20T09:24:55;2.40;;;0.90;;
5010;SDS011;2524;54.364;10.072;2023-07-20T09:27:21;3.03;;;0.80;;
5010;SDS011;2524;54.364;10.072;2023-07-20T09:29:52;1.13;;;0.87;;
5010;SDS011;2524;54.364;10.072;2023-07-20T09:32:19;1.53;;;1.03;;
5010;SDS011;2524;54.364;10.072;2023-07-20T09:34:49;1.00;;;0.90;;
5010;SDS011;2524;54.364;10.072;2023-07-20T09:37:20;0.97;;;0.70;;
5010;SDS011;2524;54.364;10.072;2023-07-20T09:39:51;1.13;;;0.60;;
5010;SDS011;2524;54.364;10.072;2023-07-20T09:42:17;0.87;;;0.80;;
5010;SDS011;2524;54.364;10.072;2023-07-20T09:44:43;1.23;;;0.60;;
5010;SDS011;2524;54.364;10.072;2023-07-20T09:47:09;0.60;;;0.50;;
5010;SDS011;2524;54.364;10.072;2023-07-20T09:49:41;0.60;;;0.53;;
5010;SDS011;2524;54.364;10.072;2023-07-20T09:52:10;0.50;;;0.50;;
5010;SDS011;2524;54.364;10.072;2023-07-20T09:54:39;0.77;;;0.47;;
5010;SDS011;2524;54.364;10.072;2023-07-20T09:57:08;0.70;;;0.50;;
5010;SDS011;2524;54.364;10.072;2023-07-20T09:59:34;0.67;;;0.67;;
5010;SDS011;2524;54.364;10.072;2023-07-20T10:02:00;0.80;;;0.73;;
5010;SDS011;2524;54.364;10.072;2023-07-20T10:04:29;0.70;;;0.57;;
5010;SDS011;2524;54.364;10.072;2023-07-20T10:06:59;0.97;;;0.87;;
5010;SDS011;2524;54.364;10.072;2023-07-20T10:09:27;0.83;;;0.63;;
5010;SDS011;2524;54.364;10.072;2023-07-20T10:11:54;0.80;;;0.60;;
5010;SDS011;2524;54.364;10.072;2023-07-20T10:14:23;0.60;;;0.60;;
5010;SDS011;2524;54.364;10.072;2023-07-20T10:16:51;2.97;;;1.10;;
5010;SDS011;2524;54.364;10.072;2023-07-20T10:19:23;0.77;;;0.77;;
5010;SDS011;2524;54.364;10.072;2023-07-20T10:21:57;0.90;;;0.70;;
5010;SDS011;2524;54.364;10.072;2023-07-20T10:24:28;1.80;;;0.80;;
5010;SDS011;2524;54.364;10.072;2023-07-20T10:26:56;1.23;;;1.07;;
5010;SDS011;2524;54.364;10.072;2023-07-20T10:29:22;1.73;;;1.00;;
5010;SDS011;2524;54.364;10.072;2023-07-20T10:31:50;0.90;;;0.90;;
5010;SDS011;2524;54.364;10.072;2023-07-20T10:34:16;1.00;;;0.90;;
5010;SDS011;2524;54.364;10.072;2023-07-20T10:36:45;1.63;;;0.90;;
5010;SDS011;2524;54.364;10.072;2023-07-20T10:39:22;3.27;;;1.13;;
5010;SDS011;2524;54.364;10.072;2023-07-20T10:44:36;1.10;;;0.93;;
5010;SDS011;2524;54.364;10.072;2023-07-20T10:47:03;1.37;;;0.87;;
5010;SDS011;2524;54.364;10.072;2023-07-20T10:52:25;1.60;;;1.10;;
5010;SDS011;2524;54.364;10.072;2023-07-20T10:54:51;1.27;;;1.00;;
5010;SDS011;2524;54.364;10.072;2023-07-20T10:57:30;3.47;;;1.37;;
5010;SDS011;2524;54.364;10.072;2023-07-20T11:00:10;3.20;;;1.23;;
5010;SDS011;2524;54.364;10.072;2023-07-20T11:05:31;1.17;;;1.13;;
5010;SDS011;2524;54.364;10.072;2023-07-20T11:08:06;1.77;;;0.80;;
5010;SDS011;2524;54.364;10.072;2023-07-20T11:10:35;2.47;;;1.20;;
5010;SDS011;2524;54.364;10.072;2023-07-20T11:15:45;3.60;;;1.60;;
5010;SDS011;2524;54.364;10.072;2023-07-20T11:18:26;1.57;;;1.03;;
5010;SDS011;2524;54.364;10.072;2023-07-20T11:20:53;2.47;;;1.07;;
5010;SDS011;2524;54.364;10.072;2023-07-20T11:23:22;1.47;;;1.37;;
5010;SDS011;2524;54.364;10.072;2023-07-20T11:25:48;2.17;;;1.50;;
5010;SDS011;2524;54.364;10.072;2023-07-20T11:28:14;4.90;;;1.20;;
5010;SDS011;2524;54.364;10.072;2023-07-20T11:30:40;1.00;;;1.00;;
5010;SDS011;2524;54.364;10.072;2023-07-20T11:33:09;3.30;;;1.23;;
5010;SDS011;2524;54.364;10.072;2023-07-20T11:35:35;3.33;;;1.20;;
5010;SDS011;2524;54.364;10.072;2023-07-20T11:38:15;1.47;;;1.00;;
5010;SDS011;2524;54.364;10.072;2023-07-20T11:40:44;1.93;;;1.17;;
5010;SDS011;2524;54.364;10.072;2023-07-20T11:43:11;2.50;;;1.50;;
5010;SDS011;2524;54.364;10.072;2023-07-20T11:45:38;4.10;;;1.20;;
5010;SDS011;2524;54.364;10.072;2023-07-20T11:48:04;3.30;;;1.60;;
5010;SDS011;2524;54.364;10.072;2023-07-20T11:50:30;1.90;;;1.00;;
5010;SDS011;2524;54.364;10.072;2023-07-20T11:52:55;4.70;;;1.63;;
5010;SDS011;2524;54.364;10.072;2023-07-20T11:55:21;1.97;;;1.30;;
5010;SDS011;2524;54.364;10.072;2023-07-20T11:58:06;1.90;;;1.13;;
5010;SDS011;2524;54.364;10.072;2023-07-20T12:00:33;5.60;;;1.77;;
5010;SDS011;2524;54.364;10.072;2023-07-20T12:03:00;1.47;;;1.27;;
5010;SDS011;2524;54.364;10.072;2023-07-20T12:05:26;7.90;;;3.17;;
5010;SDS011;2524;54.364;10.072;2023-07-20T12:07:52;3.47;;;1.60;;
5010;SDS011;2524;54.364;10.072;2023-07-20T12:10:26;1.17;;;1.07;;
5010;SDS011;2524;54.364;10.072;2023-07-20T12:12:53;1.90;;;1.13;;
5010;SDS011;2524;54.364;10.072;2023-07-20T12:15:23;1.90;;;1.27;;
5010;SDS011;2524;54.364;10.072;2023-07-20T12:17:54;5.20;;;1.40;;
5010;SDS011;2524;54.364;10.072;2023-07-20T12:23:11;3.27;;;1.50;;
5010;SDS011;2524;54.364;10.072;2023-07-20T12:25:45;4.43;;;1.50;;
5010;SDS011;2524;54.364;10.072;2023-07-20T12:28:12;2.40;;;1.80;;
5010;SDS011;2524;54.364;10.072;2023-07-20T12:30:42;6.27;;;1.70;;
5010;SDS011;2524;54.364;10.072;2023-07-20T12:33:09;3.10;;;1.43;;
5010;SDS011;2524;54.364;10.072;2023-07-20T12:35:36;2.90;;;1.47;;
5010;SDS011;2524;54.364;10.072;2023-07-20T12:38:02;1.23;;;1.00;;
5010;SDS011;2524;54.364;10.072;2023-07-20T12:40:28;2.57;;;1.10;;
5010;SDS011;2524;54.364;10.072;2023-07-20T12:42:54;1.20;;;1.10;;
5010;SDS011;2524;54.364;10.072;2023-07-20T12:45:20;1.30;;;1.00;;
5010;SDS011;2524;54.364;10.072;2023-07-20T12:47:46;2.30;;;1.37;;
5010;SDS011;2524;54.364;10.072;2023-07-20T12:50:12;3.13;;;1.30;;
5010;SDS011;2524;54.364;10.072;2023-07-20T12:52:39;2.00;;;1.00;;
5010;SDS011;2524;54.364;10.072;2023-07-20T12:55:08;1.67;;;1.00;;
5010;SDS011;2524;54.364;10.072;2023-07-20T12:57:35;1.90;;;1.33;;
5010;SDS011;2524;54.364;10.072;2023-07-20T13:00:01;4.43;;;1.57;;
5010;SDS011;2524;54.364;10.072;2023-07-20T13:02:33;2.50;;;1.10;;
5010;SDS011;2524;54.364;10.072;2023-07-20T13:04:58;1.40;;;1.10;;
5010;SDS011;2524;54.364;10.072;2023-07-20T13:07:31;2.10;;;1.10;;
5010;SDS011;2524;54.364;10.072;2023-07-20T13:10:04;4.83;;;1.00;;
5010;SDS011;2524;54.364;10.072;2023-07-20T13:12:31;3.27;;;1.20;;
5010;SDS011;2524;54.364;10.072;2023-07-20T13:14:58;2.80;;;1.60;;
5010;SDS011;2524;54.364;10.072;2023-07-20T13:17:27;2.57;;;1.00;;
5010;SDS011;2524;54.364;10.072;2023-07-20T13:19:54;2.20;;;0.80;;
5010;SDS011;2524;54.364;10.072;2023-07-20T13:22:20;2.00;;;0.80;;
5010;SDS011;2524;54.364;10.072;2023-07-20T13:24:46;3.30;;;0.93;;
5010;SDS011;2524;54.364;10.072;2023-07-20T13:27:13;5.33;;;1.10;;
5010;SDS011;2524;54.364;10.072;2023-07-20T13:29:40;4.80;;;1.40;;
5010;SDS011;2524;54.364;10.072;2023-07-20T13:32:06;1.10;;;1.00;;
5010;SDS011;2524;54.364;10.072;2023-07-20T13:34:32;3.07;;;1.30;;
5010;SDS011;2524;54.364;10.072;2023-07-20T13:36:58;3.17;;;1.20;;
5010;SDS011;2524;54.364;10.072;2023-07-20T13:39:23;3.13;;;1.60;;
5010;SDS011;2524;54.364;10.072;2023-07-20T13:41:51;2.83;;;1.40;;
5010;SDS011;2524;54.364;10.072;2023-07-20T13:44:17;1.80;;;1.07;;
5010;SDS011;2524;54.364;10.072;2023-07-20T13:46:43;2.00;;;1.33;;
5010;SDS011;2524;54.364;10.072;2023-07-20T13:49:08;4.27;;;1.43;;
5010;SDS011;2524;54.364;10.072;2023-07-20T13:51:34;1.37;;;1.20;;
5010;SDS011;2524;54.364;10.072;2023-07-20T13:54:00;1.70;;;0.93;;
5010;SDS011;2524;54.364;10.072;2023-07-20T13:56:25;2.17;;;1.00;;
5010;SDS011;2524;54.364;10.072;2023-07-20T13:58:52;5.50;;;1.27;;
5010;SDS011;2524;54.364;10.072;2023-07-20T14:01:17;1.90;;;1.23;;
5010;SDS011;2524;54.364;10.072;2023-07-20T14:03:43;2.40;;;1.00;;
5010;SDS011;2524;54.364;10.072;2023-07-20T14:06:09;1.57;;;1.03;;
5010;SDS011;2524;54.364;10.072;2023-07-20T14:08:37;1.33;;;0.87;;
5010;SDS011;2524;54.364;10.072;2023-07-20T14:11:03;1.20;;;1.10;;
5010;SDS011;2524;54.364;10.072;2023-07-20T14:13:28;2.67;;;1.07;;
5010;SDS011;2524;54.364;10.072;2023-07-20T14:15:54;1.53;;;1.10;;
5010;SDS011;2524;54.364;10.072;2023-07-20T14:18:19;3.13;;;1.07;;
5010;SDS011;2524;54.364;10.072;2023-07-20T14:20:45;0.97;;;0.90;;
5010;SDS011;2524;54.364;10.072;2023-07-20T14:23:10;1.10;;;1.00;;
5010;SDS011;2524;54.364;10.072;2023-07-20T14:25:36;1.53;;;1.10;;
5010;SDS011;2524;54.364;10.072;2023-07-20T14:28:01;1.73;;;1.00;;
5010;SDS011;2524;54.364;10.072;2023-07-20T14:30:27;1.47;;;1.17;;
5010;SDS011;2524;54.364;10.072;2023-07-20T14:32:53;1.10;;;1.00;;
5010;SDS011;2524;54.364;10.072;2023-07-20T14:35:18;1.23;;;1.00;;
5010;SDS011;2524;54.364;10.072;2023-07-20T14:37:44;1.63;;;1.03;;
5010;SDS011;2524;54.364;10.072;2023-07-20T14:40:12;2.60;;;1.50;;
5010;SDS011;2524;54.364;10.072;2023-07-20T14:42:38;5.80;;;1.33;;
5010;SDS011;2524;54.364;10.072;2023-07-20T14:45:04;5.47;;;1.23;;
5010;SDS011;2524;54.364;10.072;2023-07-20T14:47:30;1.00;;;0.90;;
5010;SDS011;2524;54.364;10.072;2023-07-20T14:50:03;1.57;;;1.00;;
5010;SDS011;2524;54.364;10.072;2023-07-20T14:52:29;2.03;;;1.20;;
5010;SDS011;2524;54.364;10.072;2023-07-20T14:54:55;1.40;;;0.90;;
5010;SDS011;2524;54.364;10.072;2023-07-20T14:57:20;1.10;;;0.70;;
5010;SDS011;2524;54.364;10.072;2023-07-20T14:59:48;1.57;;;1.00;;
5010;SDS011;2524;54.364;10.072;2023-07-20T15:02:14;1.97;;;1.10;;
5010;SDS011;2524;54.364;10.072;2023-07-20T15:04:50;1.20;;;0.80;;
5010;SDS011;2524;54.364;10.072;2023-07-20T15:07:16;0.90;;;0.90;;
5010;SDS011;2524;54.364;10.072;2023-07-20T15:09:47;1.10;;;1.00;;
5010;SDS011;2524;54.364;10.072;2023-07-20T15:12:12;1.53;;;1.00;;
5010;SDS011;2524;54.364;10.072;2023-07-20T15:14:39;1.27;;;1.00;;
5010;SDS011;2524;54.364;10.072;2023-07-20T15:17:06;3.30;;;1.10;;
5010;SDS011;2524;54.364;10.072;2023-07-20T15:19:32;0.90;;;0.90;;
5010;SDS011;2524;54.364;10.072;2023-07-20T15:21:59;0.70;;;0.70;;
5010;SDS011;2524;54.364;10.072;2023-07-20T15:24:25;1.40;;;0.90;;